createdAt,value
2018-02-18T00:00:59.193Z,1.10
2018-02-18T00:03:26.649Z,1.10
2018-02-18T00:05:54.184Z,1.10
2018-02-18T00:08:21.683Z,1.00
2018-02-18T00:10:49.095Z,1.00
2018-02-18T00:13:16.524Z,1.00
2018-02-18T00:15:43.953Z,1.00
2018-02-18T00:18:11.384Z,1.00
2018-02-18T00:20:38.936Z,1.00
2018-02-18T00:23:06.691Z,1.00
2018-02-18T00:25:34.132Z,1.00
2018-02-18T00:28:01.561Z,0.90
2018-02-18T00:30:29.057Z,0.90
2018-02-18T00:32:56.763Z,0.90
2018-02-18T00:35:24.185Z,0.90
2018-02-18T00:37:51.622Z,0.80
2018-02-18T00:40:19.125Z,0.80
2018-02-18T00:42:46.641Z,0.80
2018-02-18T00:45:14.075Z,0.70
2018-02-18T00:47:41.504Z,0.70
2018-02-18T00:50:08.935Z,0.70
2018-02-18T00:52:36.360Z,0.70
2018-02-18T00:55:03.816Z,0.60
2018-02-18T00:57:31.379Z,0.60
2018-02-18T00:59:58.816Z,0.60
2018-02-18T01:02:26.297Z,0.60
2018-02-18T01:04:53.734Z,0.60
2018-02-18T01:07:21.160Z,0.60
2018-02-18T01:09:48.663Z,0.60
2018-02-18T01:12:16.097Z,0.50
2018-02-18T01:14:43.520Z,0.60
2018-02-18T01:17:11.027Z,0.50
2018-02-18T01:19:38.454Z,0.50
2018-02-18T01:22:05.953Z,0.50
2018-02-18T01:24:33.380Z,0.50
2018-02-18T01:27:00.877Z,0.40
2018-02-18T01:29:28.312Z,0.40
2018-02-18T01:31:55.777Z,0.40
2018-02-18T01:34:23.223Z,0.40
2018-02-18T01:36:50.650Z,0.40
2018-02-18T01:39:18.141Z,0.40
2018-02-18T01:41:45.908Z,0.40
2018-02-18T01:44:13.352Z,0.40
2018-02-18T01:46:40.820Z,0.40
2018-02-18T01:49:08.286Z,0.40
2018-02-18T01:51:35.724Z,0.20
2018-02-18T01:54:03.156Z,0.30
2018-02-18T01:56:30.575Z,0.30
2018-02-18T01:58:58.007Z,0.30
2018-02-18T02:01:25.461Z,0.20
2018-02-18T02:03:52.886Z,0.30
2018-02-18T02:06:20.341Z,0.30
2018-02-18T02:08:47.771Z,0.20
2018-02-18T02:11:15.969Z,0.10
2018-02-18T02:13:43.443Z,0.10
2018-02-18T02:16:10.883Z,0.10
2018-02-18T02:18:38.301Z,0.10
2018-02-18T02:21:05.733Z,0.10
2018-02-18T02:23:33.173Z,0.10
2018-02-18T02:26:00.630Z,0.10
2018-02-18T02:28:28.064Z,0.10
2018-02-18T02:30:55.544Z,0.00
2018-02-18T02:33:22.985Z,0.00
2018-02-18T02:35:50.485Z,0.00
2018-02-18T02:38:17.916Z,-0.10
2018-02-18T02:40:45.395Z,-0.10
2018-02-18T02:43:12.813Z,-0.10
2018-02-18T02:45:40.280Z,-0.10
2018-02-18T02:48:07.725Z,-0.10
2018-02-18T02:50:35.160Z,-0.10
2018-02-18T02:53:02.673Z,-0.20
2018-02-18T02:55:30.096Z,-0.20
2018-02-18T02:57:57.572Z,-0.20
2018-02-18T03:00:25.037Z,-0.30
2018-02-18T03:02:52.464Z,-0.30
2018-02-18T03:05:20.013Z,-0.30
2018-02-18T03:07:47.483Z,-0.30
2018-02-18T03:10:14.915Z,-0.30
2018-02-18T03:12:42.349Z,-0.40
2018-02-18T03:15:10.775Z,-0.40
2018-02-18T03:17:38.216Z,-0.40
2018-02-18T03:20:05.648Z,-0.40
2018-02-18T03:22:33.147Z,-0.40
2018-02-18T03:25:00.579Z,-0.40
2018-02-18T03:27:28.016Z,-0.40
2018-02-18T03:29:55.444Z,-0.40
2018-02-18T03:32:22.884Z,-0.40
2018-02-18T03:34:50.425Z,-0.40
2018-02-18T03:37:17.864Z,-0.40
2018-02-18T03:39:45.299Z,-0.40
2018-02-18T03:42:12.731Z,-0.40
2018-02-18T03:44:40.252Z,-0.50
2018-02-18T03:47:07.703Z,-0.60
2018-02-18T03:49:35.163Z,-0.60
2018-02-18T03:52:02.936Z,-0.60
2018-02-18T03:54:30.384Z,-0.60
2018-02-18T03:56:58.019Z,-0.60
2018-02-18T03:59:25.608Z,-0.60
2018-02-18T04:01:53.031Z,-0.60
2018-02-18T04:04:20.517Z,-0.60
2018-02-18T04:06:48.287Z,-0.60
2018-02-18T04:09:15.914Z,-0.60
2018-02-18T04:11:43.371Z,-0.60
2018-02-18T04:14:10.833Z,-0.60
2018-02-18T04:16:38.432Z,-0.60
2018-02-18T04:19:06.167Z,-0.70
2018-02-18T04:21:33.608Z,-0.70
2018-02-18T04:24:01.082Z,-0.70
2018-02-18T04:26:28.520Z,-0.70
2018-02-18T04:28:55.948Z,-0.70
2018-02-18T04:31:23.392Z,-0.70
2018-02-18T04:33:50.856Z,-0.80
2018-02-18T04:36:18.284Z,-0.80
2018-02-18T04:38:45.821Z,-0.80
2018-02-18T04:41:13.255Z,-0.90
2018-02-18T04:43:40.693Z,-0.90
2018-02-18T04:46:08.129Z,-0.90
2018-02-18T04:48:35.558Z,-0.90
2018-02-18T04:51:03.015Z,-0.90
2018-02-18T04:53:30.515Z,-0.90
2018-02-18T04:55:58.017Z,-0.90
2018-02-18T04:58:25.456Z,-0.90
2018-02-18T05:00:52.936Z,-1.10
2018-02-18T05:03:20.383Z,-1.20
2018-02-18T05:05:47.810Z,-1.20
2018-02-18T05:08:15.263Z,-1.10
2018-02-18T05:10:42.760Z,-1.10
2018-02-18T05:13:10.210Z,-1.00
2018-02-18T05:15:37.639Z,-1.00
2018-02-18T05:18:05.092Z,-1.00
2018-02-18T05:20:32.513Z,-1.00
2018-02-18T05:22:59.939Z,-1.00
2018-02-18T05:25:28.201Z,-1.00
2018-02-18T05:27:55.771Z,-1.10
2018-02-18T05:30:23.279Z,-1.00
2018-02-18T05:32:50.783Z,-1.00
2018-02-18T05:35:18.447Z,-1.10
2018-02-18T05:37:45.904Z,-1.10
2018-02-18T05:40:13.463Z,-1.10
2018-02-18T05:42:40.896Z,-1.20
2018-02-18T05:45:08.375Z,-1.20
2018-02-18T05:47:35.820Z,-1.30
2018-02-18T05:50:03.283Z,-1.30
2018-02-18T05:52:30.921Z,-1.30
2018-02-18T05:54:58.378Z,-1.30
2018-02-18T05:57:25.876Z,-1.40
2018-02-18T05:59:53.421Z,-1.40
2018-02-18T06:02:21.188Z,-1.40
2018-02-18T06:04:48.796Z,-1.40
2018-02-18T06:07:16.314Z,-1.50
2018-02-18T06:09:43.754Z,-1.50
2018-02-18T06:12:11.234Z,-1.60
2018-02-18T06:14:38.684Z,-1.50
2018-02-18T06:17:06.113Z,-1.50
2018-02-18T06:19:33.663Z,-1.60
2018-02-18T06:22:01.111Z,-1.50
2018-02-18T06:24:28.542Z,-1.60
2018-02-18T06:26:56.850Z,-1.70
2018-02-18T06:29:24.360Z,-1.70
2018-02-18T06:31:51.858Z,-1.60
2018-02-18T06:34:19.381Z,-1.70
2018-02-18T06:36:46.821Z,-1.70
2018-02-18T06:39:14.295Z,-1.60
2018-02-18T06:41:41.808Z,-1.60
2018-02-18T06:44:09.237Z,-1.60
2018-02-18T06:46:36.936Z,-1.60
2018-02-18T06:49:04.564Z,-1.70
2018-02-18T06:51:32.044Z,-1.60
2018-02-18T06:53:59.538Z,-1.70
2018-02-18T06:56:26.953Z,-1.70
2018-02-18T06:58:54.409Z,-1.70
2018-02-18T07:01:21.851Z,-1.70
2018-02-18T07:03:49.355Z,-1.60
2018-02-18T07:06:16.797Z,-1.60
2018-02-18T07:08:44.361Z,-1.60
2018-02-18T07:11:11.904Z,-1.60
2018-02-18T07:13:39.480Z,-1.50
2018-02-18T07:16:06.919Z,-1.50
2018-02-18T07:18:34.497Z,-1.50
2018-02-18T07:21:01.941Z,-1.50
2018-02-18T07:23:29.398Z,-1.50
2018-02-18T07:25:56.828Z,-1.40
2018-02-18T07:28:25.220Z,-1.40
2018-02-18T07:30:52.690Z,-1.40
2018-02-18T07:33:20.121Z,-1.30
2018-02-18T07:35:47.601Z,-1.30
2018-02-18T07:38:15.363Z,-1.30
2018-02-18T07:40:42.809Z,-1.30
2018-02-18T07:43:10.443Z,-1.20
2018-02-18T07:45:37.907Z,-1.10
2018-02-18T07:48:05.496Z,-1.10
2018-02-18T07:50:32.936Z,-1.10
2018-02-18T07:53:00.425Z,-1.00
2018-02-18T07:55:28.040Z,-1.00
2018-02-18T07:57:55.480Z,-1.00
2018-02-18T08:00:22.975Z,-0.90
2018-02-18T08:02:50.439Z,-0.80
2018-02-18T08:05:17.947Z,-0.80
2018-02-18T08:07:45.384Z,-0.70
2018-02-18T08:10:12.836Z,-0.70
2018-02-18T08:12:40.312Z,-0.60
2018-02-18T08:15:07.758Z,-0.50
2018-02-18T08:17:35.183Z,-0.40
2018-02-18T08:20:02.748Z,-0.30
2018-02-18T08:22:30.182Z,-0.30
2018-02-18T08:24:57.635Z,-0.20
2018-02-18T08:27:25.060Z,-0.10
2018-02-18T08:29:52.574Z,0.00
2018-02-18T08:32:20.004Z,0.00
2018-02-18T08:34:47.435Z,0.10
2018-02-18T08:37:14.920Z,0.20
2018-02-18T08:39:42.351Z,0.30
2018-02-18T08:42:09.780Z,0.40
2018-02-18T08:44:37.213Z,0.50
2018-02-18T08:47:04.656Z,0.60
2018-02-18T08:49:32.112Z,0.70
2018-02-18T08:51:59.666Z,0.80
2018-02-18T08:54:27.332Z,1.00
2018-02-18T08:56:54.782Z,1.00
2018-02-18T08:59:22.246Z,1.10
2018-02-18T09:01:49.711Z,1.30
2018-02-18T09:04:17.226Z,1.40
2018-02-18T09:06:44.655Z,1.50
2018-02-18T09:09:12.098Z,1.60
2018-02-18T09:11:39.537Z,1.70
2018-02-18T09:14:07.073Z,1.80
2018-02-18T09:16:34.738Z,1.90
2018-02-18T09:19:02.182Z,2.00
2018-02-18T09:21:29.616Z,2.10
2018-02-18T09:23:57.056Z,2.20
2018-02-18T09:26:25.301Z,2.40
2018-02-18T09:28:52.949Z,2.40
2018-02-18T09:31:20.395Z,2.50
2018-02-18T09:33:48.005Z,2.60
2018-02-18T09:36:15.416Z,2.60
2018-02-18T09:38:42.852Z,2.70
2018-02-18T09:41:10.329Z,2.80
2018-02-18T09:43:37.772Z,2.90
2018-02-18T09:48:44.712Z,3.20
2018-02-18T09:51:12.441Z,3.20
2018-02-18T09:53:39.891Z,3.20
2018-02-18T09:56:07.337Z,3.30
2018-02-18T09:58:34.763Z,3.40
2018-02-18T10:01:02.260Z,3.60
2018-02-18T10:03:29.718Z,3.60
2018-02-18T10:05:57.158Z,3.60
2018-02-18T10:08:24.581Z,3.80
2018-02-18T10:10:52.028Z,4.00
2018-02-18T10:13:20.293Z,4.30
2018-02-18T10:15:47.915Z,4.40
2018-02-18T10:18:15.371Z,4.60
2018-02-18T10:20:43.915Z,4.80
2018-02-18T10:23:12.100Z,5.00
2018-02-18T10:25:39.592Z,5.00
2018-02-18T10:28:07.123Z,5.10
2018-02-18T10:30:35.450Z,5.30
2018-02-18T10:33:03.085Z,5.50
2018-02-18T10:35:30.562Z,5.70
2018-02-18T10:37:58.080Z,5.80
2018-02-18T10:40:25.661Z,5.80
2018-02-18T10:42:53.198Z,5.90
2018-02-18T10:45:20.767Z,6.00
2018-02-18T10:47:48.391Z,6.10
2018-02-18T10:50:15.837Z,6.20
2018-02-18T10:52:44.068Z,6.50
2018-02-18T10:55:11.838Z,6.50
2018-02-18T10:57:39.285Z,6.60
2018-02-18T11:00:06.741Z,6.60
2018-02-18T11:02:34.399Z,6.60
2018-02-18T11:05:01.968Z,6.80
2018-02-18T11:07:29.604Z,6.90
2018-02-18T11:09:57.181Z,6.90
2018-02-18T11:12:24.626Z,7.00
2018-02-18T11:14:52.074Z,7.10
2018-02-18T11:17:20.402Z,7.30
2018-02-18T11:19:47.844Z,7.40
2018-02-18T11:22:15.395Z,7.70
2018-02-18T11:24:43.033Z,7.50
2018-02-18T11:27:10.592Z,7.70
2018-02-18T11:29:38.016Z,7.80
2018-02-18T11:32:05.503Z,7.80
2018-02-18T11:34:32.937Z,8.00
2018-02-18T11:37:00.359Z,8.30
2018-02-18T11:39:27.876Z,8.50
2018-02-18T11:41:55.525Z,8.50
2018-02-18T11:44:22.975Z,8.50
2018-02-18T11:46:50.554Z,8.50
2018-02-18T11:49:17.981Z,8.50
2018-02-18T11:51:45.408Z,8.30
2018-02-18T11:54:12.966Z,8.50
2018-02-18T11:56:40.400Z,8.60
2018-02-18T11:59:08.144Z,8.80
2018-02-18T12:01:35.773Z,8.60
2018-02-18T12:04:03.366Z,8.60
2018-02-18T12:06:30.796Z,8.70
2018-02-18T12:08:58.280Z,8.50
2018-02-18T12:11:25.710Z,8.70
2018-02-18T12:13:53.137Z,8.80
2018-02-18T12:16:20.645Z,8.80
2018-02-18T12:18:48.071Z,8.60
2018-02-18T12:21:15.503Z,8.80
2018-02-18T12:23:43.695Z,9.10
2018-02-18T12:26:11.411Z,9.10
2018-02-18T12:28:38.847Z,8.70
2018-02-18T12:31:06.477Z,8.80
2018-02-18T12:33:33.896Z,8.90
2018-02-18T12:36:01.518Z,10.30
2018-02-18T12:38:29.288Z,10.70
2018-02-18T12:40:56.744Z,10.70
2018-02-18T12:43:24.190Z,10.80
2018-02-18T12:45:51.662Z,10.50
2018-02-18T12:48:19.120Z,10.70
2018-02-18T12:50:46.768Z,10.70
2018-02-18T12:53:14.196Z,10.50
2018-02-18T12:55:41.802Z,10.60
2018-02-18T12:58:09.236Z,10.50
2018-02-18T13:00:36.667Z,10.70
2018-02-18T13:03:04.117Z,10.90
2018-02-18T13:05:32.424Z,11.60
2018-02-18T13:07:59.858Z,11.60
2018-02-18T13:10:27.362Z,11.80
2018-02-18T13:12:54.793Z,11.80
2018-02-18T13:15:22.289Z,11.90
2018-02-18T13:17:49.753Z,12.30
2018-02-18T13:20:17.197Z,12.50
2018-02-18T13:22:44.729Z,12.70
2018-02-18T13:25:12.492Z,12.90
2018-02-18T13:27:39.920Z,13.30
2018-02-18T13:30:07.400Z,13.40
2018-02-18T13:32:34.864Z,13.80
2018-02-18T13:35:02.255Z,14.00
2018-02-18T13:37:29.779Z,13.40
2018-02-18T13:39:57.416Z,13.50
2018-02-18T13:42:24.996Z,13.70
2018-02-18T13:44:52.425Z,13.70
2018-02-18T13:47:19.848Z,13.60
2018-02-18T13:49:47.358Z,13.90
2018-02-18T13:52:14.815Z,14.70
2018-02-18T13:54:42.258Z,15.40
2018-02-18T13:57:09.684Z,15.30
2018-02-18T13:59:37.105Z,14.90
2018-02-18T14:02:04.581Z,13.90
2018-02-18T14:04:32.105Z,13.20
2018-02-18T14:06:59.732Z,12.10
2018-02-18T14:09:27.311Z,11.60
2018-02-18T14:11:54.773Z,11.80
2018-02-18T14:14:22.206Z,12.00
2018-02-18T14:16:49.728Z,11.80
2018-02-18T14:19:17.132Z,11.80
2018-02-18T14:21:44.588Z,11.70
2018-02-18T14:24:12.032Z,11.60
2018-02-18T14:26:40.244Z,11.40
2018-02-18T14:29:07.755Z,11.40
2018-02-18T14:31:35.195Z,11.40
2018-02-18T14:34:03.413Z,11.40
2018-02-18T14:36:30.869Z,11.40
2018-02-18T14:38:58.332Z,11.70
2018-02-18T14:41:37.521Z,12.00
2018-02-18T14:57:35.184Z,14.40
2018-02-18T15:00:02.607Z,14.80
2018-02-18T15:02:30.220Z,15.00
2018-02-18T15:04:57.643Z,14.50
2018-02-18T15:07:25.127Z,13.60
2018-02-18T15:09:52.521Z,12.50
2018-02-18T15:12:20.047Z,12.00
2018-02-18T15:14:47.529Z,11.60
2018-02-18T15:17:14.944Z,10.90
2018-02-18T15:19:42.375Z,10.90
2018-02-18T15:22:10.559Z,10.80
2018-02-18T15:24:38.000Z,10.80
2018-02-18T15:27:05.637Z,10.70
2018-02-18T15:29:33.852Z,10.80
2018-02-18T15:32:01.273Z,10.70
2018-02-18T15:34:28.868Z,11.10
2018-02-18T15:36:56.465Z,11.40
2018-02-18T15:39:24.215Z,12.00
2018-02-18T15:41:51.672Z,11.50
2018-02-18T15:44:19.435Z,10.90
2018-02-18T15:46:46.876Z,11.10
2018-02-18T15:49:14.291Z,10.70
2018-02-18T15:51:41.816Z,10.40
2018-02-18T15:54:09.573Z,10.60
2018-02-18T15:56:37.502Z,10.10
2018-02-18T15:59:05.751Z,10.20
2018-02-18T16:01:33.185Z,10.10
2018-02-18T16:04:00.629Z,9.50
2018-02-18T16:06:28.040Z,9.20
2018-02-18T16:08:55.492Z,9.40
2018-02-18T16:11:22.922Z,9.00
2018-02-18T16:13:50.357Z,8.60
2018-02-18T16:16:17.912Z,7.90
2018-02-18T16:18:45.352Z,7.70
2018-02-18T16:21:12.777Z,7.30
2018-02-18T16:23:40.334Z,6.90
2018-02-18T16:26:07.942Z,6.40
2018-02-18T16:28:35.490Z,6.10
2018-02-18T16:31:02.904Z,5.90
2018-02-18T16:33:30.402Z,6.00
2018-02-18T16:35:57.855Z,6.00
2018-02-18T16:38:25.296Z,6.00
2018-02-18T16:40:52.725Z,5.90
2018-02-18T16:43:20.928Z,5.60
2018-02-18T16:45:48.356Z,5.60
2018-02-18T16:48:15.804Z,5.30
2018-02-18T16:50:43.324Z,5.10
2018-02-18T16:53:10.866Z,5.00
2018-02-18T16:55:38.437Z,5.10
2018-02-18T16:58:06.721Z,5.00
2018-02-18T17:00:34.263Z,5.00
2018-02-18T17:03:02.331Z,5.00
2018-02-18T17:05:30.170Z,5.00
2018-02-18T17:07:57.904Z,4.90
2018-02-18T17:10:25.499Z,4.80
2018-02-18T17:12:53.800Z,4.60
2018-02-18T17:15:21.349Z,4.60
2018-02-18T17:17:48.825Z,4.50
2018-02-18T17:20:16.364Z,4.50
2018-02-18T17:22:43.832Z,4.50
2018-02-18T17:25:11.260Z,4.40
2018-02-18T17:27:38.690Z,4.40
2018-02-18T17:30:06.146Z,4.40
2018-02-18T17:32:33.555Z,4.30
2018-02-18T17:35:00.983Z,4.10
2018-02-18T17:37:28.471Z,4.10
2018-02-18T17:39:56.029Z,4.00
2018-02-18T17:42:23.447Z,4.00
2018-02-18T17:44:50.892Z,3.90
2018-02-18T17:47:18.385Z,3.70
2018-02-18T17:49:45.825Z,3.70
2018-02-18T17:52:13.252Z,3.60
2018-02-18T17:54:40.680Z,3.40
2018-02-18T17:57:08.248Z,3.40
2018-02-18T17:59:35.676Z,3.40
2018-02-18T18:02:03.440Z,3.20
2018-02-18T18:04:31.220Z,3.10
2018-02-18T18:06:58.659Z,3.20
2018-02-18T18:09:26.084Z,3.10
2018-02-18T18:11:53.569Z,3.10
2018-02-18T18:14:21.037Z,3.00
2018-02-18T18:16:48.700Z,2.90
2018-02-18T18:19:16.891Z,2.70
2018-02-18T18:21:44.625Z,2.70
2018-02-18T18:24:12.045Z,2.60
2018-02-18T18:26:40.244Z,2.50
2018-02-18T18:29:07.772Z,2.40
2018-02-18T18:31:37.547Z,2.40
2018-02-18T18:34:05.147Z,2.40
2018-02-18T18:36:32.649Z,2.40
2018-02-18T18:39:00.117Z,2.30
2018-02-18T18:41:27.542Z,2.30
2018-02-18T18:43:55.000Z,2.30
2018-02-18T18:46:22.500Z,2.30
2018-02-18T18:48:50.545Z,2.30
2018-02-18T18:51:17.969Z,2.30
2018-02-18T18:53:45.555Z,2.30
2018-02-18T18:56:13.307Z,2.30
2018-02-18T18:58:40.764Z,2.30
2018-02-18T19:01:08.220Z,2.20
2018-02-18T19:03:35.676Z,2.20
2018-02-18T19:06:03.132Z,2.30
2018-02-18T19:08:30.568Z,2.30
2018-02-18T19:10:57.996Z,2.30
2018-02-18T19:13:25.419Z,2.20
2018-02-18T19:15:52.960Z,2.20
2018-02-18T19:18:20.501Z,2.20
2018-02-18T19:20:48.185Z,2.30
2018-02-18T19:23:15.949Z,2.30
2018-02-18T19:25:43.402Z,2.20
2018-02-18T19:28:10.812Z,2.20
2018-02-18T19:30:38.247Z,2.20
2018-02-18T19:33:05.760Z,2.20
2018-02-18T19:35:33.211Z,2.10
2018-02-18T19:38:00.646Z,2.10
2018-02-18T19:40:28.083Z,2.10
2018-02-18T19:42:55.585Z,2.20
2018-02-18T19:45:23.033Z,2.20
2018-02-18T19:47:51.308Z,2.20
2018-02-18T19:50:18.753Z,2.40
2018-02-18T19:52:47.316Z,2.40
2018-02-18T19:55:15.543Z,2.50
2018-02-18T19:57:43.875Z,2.60
2018-02-18T20:00:13.169Z,2.60
2018-02-18T20:02:41.471Z,2.60
2018-02-18T20:05:09.169Z,2.60
2018-02-18T20:07:37.813Z,2.70
2018-02-18T20:10:05.212Z,2.70
2018-02-18T20:12:32.748Z,2.80
2018-02-18T20:15:01.061Z,2.90
2018-02-18T20:17:28.499Z,2.90
2018-02-18T20:19:55.991Z,2.90
2018-02-18T20:22:24.364Z,2.90
2018-02-18T20:24:51.874Z,2.80
2018-02-18T20:27:19.349Z,2.80
2018-02-18T20:29:46.752Z,2.80
2018-02-18T20:32:15.160Z,2.80
2018-02-18T20:34:42.597Z,2.70
2018-02-18T20:37:10.023Z,2.80
2018-02-18T20:39:37.526Z,2.80
2018-02-18T20:42:04.988Z,2.90
2018-02-18T20:44:32.757Z,3.00
2018-02-18T20:47:00.192Z,3.00
2018-02-18T20:49:27.777Z,3.00
2018-02-18T20:51:55.683Z,3.00
2018-02-18T20:54:23.200Z,2.90
2018-02-18T20:56:50.637Z,2.80
2018-02-18T20:59:18.073Z,2.80
2018-02-18T21:01:45.594Z,2.80
2018-02-18T21:04:13.329Z,2.80
2018-02-18T21:06:40.781Z,2.80
2018-02-18T21:09:08.222Z,2.80
2018-02-18T21:11:35.679Z,2.80
2018-02-18T21:14:03.143Z,2.80
2018-02-18T21:16:30.581Z,2.80
2018-02-18T21:18:57.998Z,2.90
2018-02-18T21:21:25.579Z,2.90
2018-02-18T21:23:53.278Z,2.90
2018-02-18T21:26:20.731Z,2.80
2018-02-18T21:28:48.165Z,2.80
2018-02-18T21:31:15.601Z,2.80
2018-02-18T21:33:43.016Z,2.80
2018-02-18T21:36:10.450Z,2.80
2018-02-18T21:38:37.912Z,2.80
2018-02-18T21:41:05.358Z,2.80
2018-02-18T21:43:32.821Z,2.90
2018-02-18T21:46:00.388Z,2.90
2018-02-18T21:48:28.016Z,3.00
2018-02-18T21:50:55.491Z,2.90
2018-02-18T21:53:23.003Z,3.00
2018-02-18T21:55:50.608Z,3.00
2018-02-18T21:58:18.288Z,3.10
2018-02-18T22:00:45.707Z,3.00
2018-02-18T22:03:13.137Z,2.90
2018-02-18T22:05:40.573Z,3.00
2018-02-18T22:08:08.098Z,3.00
2018-02-18T22:10:35.595Z,3.00
2018-02-18T22:13:03.332Z,3.10
2018-02-18T22:15:30.756Z,3.00
2018-02-18T22:17:58.201Z,3.00
2018-02-18T22:20:25.693Z,3.00
2018-02-18T22:22:53.144Z,3.00
2018-02-18T22:25:20.669Z,3.00
2018-02-18T22:27:48.417Z,3.00
2018-02-18T22:30:16.103Z,3.00
2018-02-18T22:32:43.595Z,3.00
2018-02-18T22:35:11.035Z,3.10
2018-02-18T22:37:38.462Z,3.20
2018-02-18T22:40:05.948Z,3.10
2018-02-18T22:42:33.376Z,3.20
2018-02-18T22:45:00.814Z,3.10
2018-02-18T22:47:28.233Z,3.10
2018-02-18T22:49:55.776Z,3.00
2018-02-18T22:52:23.202Z,3.10
2018-02-18T22:54:50.631Z,3.10
2018-02-18T22:57:18.204Z,3.10
2018-02-18T22:59:45.609Z,3.10
2018-02-18T23:02:13.242Z,3.10
2018-02-18T23:04:40.696Z,3.20
2018-02-18T23:07:08.276Z,3.20
2018-02-18T23:09:35.703Z,3.20
2018-02-18T23:12:03.123Z,3.10
2018-02-18T23:14:30.654Z,3.10
2018-02-18T23:16:58.108Z,3.20
2018-02-18T23:19:25.560Z,3.20
2018-02-18T23:21:52.984Z,3.20
2018-02-18T23:24:20.424Z,3.30
2018-02-18T23:26:47.852Z,3.30
2018-02-18T23:29:15.408Z,3.30
2018-02-18T23:31:43.689Z,3.30
2018-02-18T23:34:11.131Z,3.30
2018-02-18T23:36:38.681Z,3.30
2018-02-18T23:39:06.326Z,3.30
2018-02-18T23:41:33.816Z,3.30
2018-02-18T23:44:01.352Z,3.30
2018-02-18T23:46:28.856Z,3.40
2018-02-18T23:48:56.286Z,3.30
2018-02-18T23:51:23.724Z,3.30
2018-02-18T23:53:51.175Z,3.30
2018-02-18T23:56:18.607Z,3.30
2018-02-18T23:58:46.114Z,3.30
